Terminal Aerodrome Forecast
Issued by NWS

Home | Current Version | Previous Version | Text Only | Print | Product List | Glossary On
Versions: 1 2 3 4 5 6 7 8 9 10 11 12 13 14 15 16 17 18
367
FTUS43 KICT 181401 AAA
TAFCNU
TAF AMD
KCNU 181401Z 1814/1912 15008KT 6SM SHRA VCTS OVC035CB
      TEMPO 1814/1817 4SM TSRA OVC020CB
     FM181700 18009KT P6SM VCTS BKN050 OVC100CB
     FM182000 17010KT P6SM BKN140
     FM190300 14006KT P6SM SCT200=

USA.gov is the U.S. government's official web portal to all federal, state and local government web resources and services.